Archival Weather

Chicago O'Hare International

Chicago, Illinois (KORD)

Report from: Tuesday, December 6, 2022 10:51 PM CST
Current time: Saturday, February 4, 2023 9:50 PM CST

Current weather
Weather history
Weather forecast

Present weatherMist
Temperature2.8°C (37.0°F)
Dew point0.6°C (33.1°F)
Winds Calm
Visibility5 mi. (8 km)
Clouds Ceiling: Broken clouds 1,500 ft. (457 m)
Broken clouds 2,500 ft. (762 m)
Altimeter30.08 in.Hg (1019 mB)
Relative humidity85 %
Density altitude-1,569 ft. (-478 m)
Sea-level pressure101.9 kPa (1019 mB, 30.09 in.Hg)
Remarks Automated weather observing station with precipitation discriminator
Flight conditions Marginal Visual Meteorological Conditions
Raw dataKORD 070451Z 00000KT 5SM BR BKN015 BKN025 03/01 A3008 RMK AO2 SLP191 T00280006
An unhandled exception has occurred. See browser dev tools for details. Reload 🗙